Aviation Digital Data Service (ADDS)

Output produced by METARs form (1739 UTC 27 May 2017)
found at http://www.aviationweather.gov/adds/metars/
 
FCBB 271700Z 24003KT 9999 FEW020 27/22 Q1013 NOSIG
TAF FCBB 271700Z 2718/2824 22004KT 8000 SCT013 
     PROB30 2806/2808 2500 BR 
     PROB30 2815/2819 SCT015 FEW030CB
       
FCPP 271700Z 20009KT 9999 FEW008 SCT015 27/24 Q1013 NOSIG
TAF FCPP 271700Z 2718/2818 20004KT 8000 SCT015 SCT023 
     PROB30 2804/2808 2000 BR